Time;durP1;ratioP1;P1;durP2;ratioP2;P2;SDS_P1;SDS_P2;PMS_P1;PMS_P2;Temp;Humidity;BMP_temperature;BMP_pressure;BME280_temperature;BME280_humidity;BME280_pressure;Samples;Min_cycle;Max_cycle;Signal;HPM_P1;HPM_P2
2022/11/26 00:01:15;;;;;;;7.10;2.70;;;;;;;21.99;40.70;102408.13;5042778;28;20752;-75
2022/11/26 00:03:41;;;;;;;5.45;2.90;;;;;;;22.07;40.34;102413.50;5036502;28;20041;-75
2022/11/26 00:06:37;;;;;;;6.60;2.72;;;;;;;22.11;40.51;102425.50;5040750;28;20195;-75
2022/11/26 00:09:05;;;;;;;5.68;2.90;;;;;;;22.08;40.23;102420.47;5032754;28;20041;-75
2022/11/26 00:11:31;;;;;;;14.63;3.80;;;;;;;22.03;40.65;102428.88;5032218;28;20043;-75
2022/11/26 00:13:57;;;;;;;7.40;2.85;;;;;;;21.99;40.36;102432.00;5046022;28;20044;-75
2022/11/26 00:16:22;;;;;;;5.32;2.72;;;;;;;21.90;40.72;102425.81;5035482;28;20404;-74
2022/11/26 00:18:48;;;;;;;5.75;3.17;;;;;;;21.89;40.51;102424.13;5037161;28;20052;-75
2022/11/26 00:21:23;;;;;;;6.85;2.45;;;;;;;21.99;40.79;102432.84;5042974;28;20790;-75
2022/11/26 00:23:49;;;;;;;3.72;2.42;;;;;;;22.02;40.36;102429.88;5047564;28;20040;-74
2022/11/26 00:26:18;;;;;;;4.25;2.13;;;;;;;21.85;41.05;102433.38;5036670;28;20507;-74
2022/11/26 00:28:54;;;;;;;6.50;2.80;;;;;;;21.93;40.19;102429.97;5034300;28;20364;-74
2022/11/26 00:31:20;;;;;;;5.53;2.60;;;;;;;21.87;40.51;102430.56;5040340;28;20041;-75
2022/11/26 00:33:45;;;;;;;7.75;2.60;;;;;;;21.89;40.37;102429.44;5033960;28;20645;-75
2022/11/26 00:36:16;;;;;;;7.78;2.40;;;;;;;21.87;40.78;102449.97;5041542;28;20041;-75
2022/11/26 00:38:42;;;;;;;6.82;2.63;;;;;;;21.76;40.74;102436.97;5037045;28;20044;-75
2022/11/26 00:41:18;;;;;;;6.55;2.40;;;;;;;21.90;40.71;102449.69;5032817;28;20044;-75
2022/11/26 00:43:44;;;;;;;6.15;2.53;;;;;;;21.80;40.87;102454.25;5029729;28;20069;-75
2022/11/26 00:46:13;;;;;;;6.30;2.47;;;;;;;21.73;40.91;102452.38;5029742;28;20497;-75
2022/11/26 00:48:38;;;;;;;5.18;2.55;;;;;;;21.73;40.75;102462.97;5037778;28;20427;-75
2022/11/26 00:51:04;;;;;;;5.95;2.67;;;;;;;21.73;40.95;102465.63;5037803;28;20102;-75
2022/11/26 00:53:29;;;;;;;3.78;2.38;;;;;;;21.59;41.59;102467.81;5034211;28;20097;-75
2022/11/26 00:55:55;;;;;;;4.97;2.38;;;;;;;21.60;40.88;102461.53;5034279;28;20045;-75
2022/11/26 00:58:29;;;;;;;5.13;2.70;;;;;;;21.67;41.13;102459.94;5037966;28;20111;-73
2022/11/26 01:00:57;;;;;;;6.57;2.53;;;;;;;21.54;41.06;102462.13;5037693;28;20040;-75
2022/11/26 01:03:23;;;;;;;6.55;2.42;;;;;;;21.50;41.26;102459.94;5037487;28;20025;-75
2022/11/26 01:05:53;;;;;;;6.57;2.53;;;;;;;21.41;41.59;102473.13;5036955;28;20729;-74
2022/11/26 01:08:32;;;;;;;3.97;1.98;;;;;;;21.47;41.54;102474.31;5035303;28;20041;-75
2022/11/26 01:11:00;;;;;;;6.13;3.17;;;;;;;21.50;41.47;102473.19;5038001;28;20479;-75
2022/11/26 01:13:26;;;;;;;6.13;2.67;;;;;;;21.51;41.37;102469.53;5029639;28;20059;-75
2022/11/26 01:15:54;;;;;;;5.80;2.33;;;;;;;21.49;41.21;102471.53;5031543;28;20087;-75
2022/11/26 01:18:21;;;;;;;5.25;2.42;;;;;;;21.47;41.10;102468.19;5037478;28;20432;-74
2022/11/26 01:20:47;;;;;;;7.90;3.47;;;;;;;21.42;41.52;102481.91;5035508;28;20048;-74
2022/11/26 01:23:14;;;;;;;4.53;2.53;;;;;;;21.48;41.18;102475.16;5039631;28;20033;-74
2022/11/26 01:25:41;;;;;;;3.88;2.47;;;;;;;21.40;41.46;102478.56;5036108;28;20052;-75
2022/11/26 01:28:15;;;;;;;5.93;2.30;;;;;;;21.32;41.64;102478.47;5035363;28;20052;-75
2022/11/26 01:30:41;;;;;;;7.25;2.75;;;;;;;21.32;41.66;102489.91;5036347;28;20048;-75
2022/11/26 01:33:07;;;;;;;4.75;2.40;;;;;;;21.34;41.56;102487.09;5037464;28;20025;-75
2022/11/26 01:35:33;;;;;;;5.47;2.50;;;;;;;21.25;41.57;102480.91;5029737;28;20053;-75
2022/11/26 01:37:58;;;;;;;4.90;2.40;;;;;;;21.26;41.74;102487.03;5034007;28;20933;-75
2022/11/26 01:40:24;;;;;;;7.18;2.55;;;;;;;21.23;41.55;102490.78;5030942;28;20041;-75
2022/11/26 01:42:54;;;;;;;3.97;2.25;;;;;;;21.19;41.80;102486.78;5036106;28;20167;-75
2022/11/26 01:45:21;;;;;;;4.95;2.50;;;;;;;21.23;41.91;102484.66;5037483;28;20735;-75
2022/11/26 01:47:48;;;;;;;7.95;2.60;;;;;;;21.27;41.46;102489.53;5033883;28;20102;-75
2022/11/26 01:50:33;;;;;;;6.82;2.50;;;;;;;21.23;41.83;102493.44;5027641;28;20109;-75
2022/11/26 01:53:25;;;;;;;3.95;2.47;;;;;;;21.22;41.56;102497.06;5028127;28;20111;-75
2022/11/26 01:55:58;;;;;;;9.13;2.60;;;;;;;21.24;41.50;102499.56;5033902;28;20096;-75
2022/11/26 01:58:36;;;;;;;5.47;2.60;;;;;;;21.11;41.80;102494.59;5033753;28;20064;-75
2022/11/26 02:01:02;;;;;;;6.55;2.40;;;;;;;21.10;41.77;102496.41;5039122;28;20903;-73
2022/11/26 02:03:33;;;;;;;5.22;2.40;;;;;;;21.12;41.79;102507.69;5032687;28;20080;-75
2022/11/26 02:06:05;;;;;;;5.13;2.63;;;;;;;21.16;41.69;102494.97;5038063;28;20029;-74
2022/11/26 02:08:33;;;;;;;5.65;2.47;;;;;;;21.10;41.99;102503.53;5036305;28;20053;-75
2022/11/26 02:11:12;;;;;;;5.53;2.47;;;;;;;21.12;42.08;102494.44;5034267;28;20091;-75
2022/11/26 02:13:38;;;;;;;3.92;2.45;;;;;;;21.23;41.61;102501.38;5040440;28;20504;-75
2022/11/26 02:16:33;;;;;;;5.22;2.17;;;;;;;21.10;41.96;102500.88;5038126;28;20043;-75
2022/11/26 02:19:24;;;;;;;5.38;2.35;;;;;;;21.13;41.72;102503.22;5023992;28;20056;-75
2022/11/26 02:22:08;;;;;;;5.88;2.58;;;;;;;21.18;41.51;102508.09;5037475;28;20151;-75
2022/11/26 02:24:54;;;;;;;5.63;2.70;;;;;;;21.12;41.70;102510.34;5049824;28;20464;-75
2022/11/26 02:28:01;;;;;;;4.20;2.30;;;;;;;21.15;41.63;102505.72;5028280;28;20575;-75
2022/11/26 02:30:31;;;;;;;7.53;2.97;;;;;;;21.15;41.62;102511.03;5035039;28;20033;-74
2022/11/26 02:33:16;;;;;;;5.07;2.78;;;;;;;21.09;41.79;102501.88;5033634;28;20037;-75
2022/11/26 02:35:48;;;;;;;3.72;2.10;;;;;;;21.02;42.00;102506.09;5034039;28;20037;-75
2022/11/26 02:38:29;;;;;;;5.78;2.22;;;;;;;21.11;41.56;102513.97;5037653;28;20043;-75
2022/11/26 02:40:55;;;;;;;5.50;2.65;;;;;;;21.09;41.79;102508.00;5049151;28;20029;-74
2022/11/26 02:43:21;;;;;;;5.03;2.42;;;;;;;21.07;41.86;102515.25;5031836;28;20059;-74
2022/11/26 02:45:51;;;;;;;4.72;2.50;;;;;;;21.04;41.71;102517.38;5032570;28;20237;-75
2022/11/26 02:48:20;;;;;;;;;;;;;;;21.11;41.46;102511.34;5037088;28;20048;-75
2022/11/26 02:50:51;;;;;;;5.57;2.88;;;;;;;21.09;41.95;102508.00;5031405;28;19923;-75
2022/11/26 02:53:20;;;;;;;6.90;2.65;;;;;;;21.05;41.93;102513.75;5029086;28;20044;-74
2022/11/26 02:55:53;;;;;;;4.38;2.58;;;;;;;21.04;41.69;102512.06;5034493;28;20767;-75
2022/11/26 02:58:19;;;;;;;7.95;2.90;;;;;;;21.01;41.68;102507.91;5029913;28;20068;-74
2022/11/26 03:00:47;;;;;;;4.25;2.22;;;;;;;21.08;41.80;102516.09;5027024;28;20041;-74
2022/11/26 03:03:25;;;;;;;5.68;2.40;;;;;;;21.04;41.60;102518.22;5028150;28;20129;-74
2022/11/26 03:05:54;;;;;;;3.45;2.10;;;;;;;20.95;42.00;102521.72;5034428;28;20044;-75
2022/11/26 03:08:20;;;;;;;4.65;2.67;;;;;;;20.99;41.66;102524.91;5034896;28;20051;-75
2022/11/26 03:10:46;;;;;;;5.93;2.53;;;;;;;21.10;41.66;102524.72;5037700;28;20037;-74
2022/11/26 03:13:11;;;;;;;5.65;2.50;;;;;;;21.07;41.69;102522.38;5037161;28;20387;-74
2022/11/26 03:15:37;;;;;;;4.90;2.58;;;;;;;20.98;42.07;102529.38;5030672;28;20041;-75
2022/11/26 03:18:03;;;;;;;5.15;2.30;;;;;;;20.97;41.65;102526.88;5033714;28;20029;-75
2022/11/26 03:20:28;;;;;;;4.63;2.65;;;;;;;21.01;41.78;102536.22;5030961;28;20905;-74
2022/11/26 03:22:54;;;;;;;4.32;2.00;;;;;;;20.99;41.94;102524.91;5033817;28;20482;-74
2022/11/26 03:25:19;;;;;;;4.40;2.42;;;;;;;20.97;41.71;102540.94;5034419;28;20096;-75
2022/11/26 03:27:45;;;;;;;3.30;2.22;;;;;;;20.96;41.73;102536.63;5032654;28;20303;-74
2022/11/26 03:30:11;;;;;;;4.72;2.60;;;;;;;20.99;41.63;102546.94;5033198;28;20029;-75
2022/11/26 03:32:36;;;;;;;4.20;2.50;;;;;;;20.98;41.66;102557.66;5036314;28;20491;-74
2022/11/26 03:35:02;;;;;;;6.40;2.55;;;;;;;20.92;41.90;102560.91;5026775;28;20127;-74
2022/11/26 03:37:29;;;;;;;4.80;2.65;;;;;;;20.95;41.93;102557.97;5037410;28;20048;-75
2022/11/26 03:39:55;;;;;;;6.25;2.72;;;;;;;20.97;41.81;102564.78;5033518;28;20167;-74
2022/11/26 03:42:21;;;;;;;5.38;2.65;;;;;;;20.97;41.72;102569.25;5032710;28;20139;-74
2022/11/26 03:44:46;;;;;;;5.97;3.13;;;;;;;20.96;41.60;102571.06;5028560;28;20043;-73
2022/11/26 03:47:12;;;;;;;6.07;2.63;;;;;;;20.92;41.89;102571.50;5031940;28;20029;-74
2022/11/26 03:49:37;;;;;;;4.93;2.83;;;;;;;20.93;41.71;102574.00;5046072;28;20488;-75
2022/11/26 03:52:03;;;;;;;5.40;2.78;;;;;;;20.90;41.84;102581.41;5032130;28;20036;-74
2022/11/26 03:54:29;;;;;;;7.35;2.95;;;;;;;20.86;42.00;102585.34;5042722;28;20475;-74
2022/11/26 03:56:54;;;;;;;3.92;2.25;;;;;;;20.90;41.97;102582.25;5042386;28;20036;-74
2022/11/26 03:59:20;;;;;;;6.65;2.60;;;;;;;20.91;41.91;102583.06;5032735;28;20045;-75
2022/11/26 04:01:45;;;;;;;5.35;2.55;;;;;;;20.93;41.87;102579.31;5042756;28;20044;-74
2022/11/26 04:04:11;;;;;;;4.30;2.20;;;;;;;20.89;41.94;102587.69;5032927;28;20056;-74
2022/11/26 04:06:36;;;;;;;3.97;2.17;;;;;;;20.92;41.89;102585.56;5027654;28;20033;-74
2022/11/26 04:09:02;;;;;;;4.68;2.75;;;;;;;20.84;41.75;102584.63;5024990;28;20048;-74
2022/11/26 04:11:27;;;;;;;4.65;2.42;;;;;;;20.80;41.89;102581.41;5027935;28;20509;-74
2022/11/26 04:13:53;;;;;;;5.03;2.60;;;;;;;20.91;41.64;102585.72;5042730;28;20049;-75
2022/11/26 04:16:19;;;;;;;4.47;2.55;;;;;;;20.90;41.68;102584.06;5037743;28;20044;-74
2022/11/26 04:18:45;;;;;;;7.03;2.60;;;;;;;20.90;41.44;102579.59;5042922;28;20487;-74
2022/11/26 04:21:11;;;;;;;5.20;3.00;;;;;;;20.82;41.84;102584.75;5031402;28;20121;-75
2022/11/26 04:23:36;;;;;;;4.53;2.47;;;;;;;20.90;41.64;102587.53;5035682;28;20510;-74
2022/11/26 04:26:02;;;;;;;5.53;2.90;;;;;;;20.75;41.78;102573.91;5045616;28;20033;-74
2022/11/26 04:28:28;;;;;;;5.72;2.75;;;;;;;20.84;41.94;102585.47;5039761;28;20990;-75
2022/11/26 04:30:53;;;;;;;5.63;2.65;;;;;;;20.89;41.69;102583.22;5042016;28;20029;-74
2022/11/26 04:33:19;;;;;;;5.13;2.72;;;;;;;20.85;41.77;102587.16;5035085;28;20387;-73
2022/11/26 04:35:45;;;;;;;5.03;2.53;;;;;;;20.86;41.74;102594.09;5034133;28;20356;-74
2022/11/26 04:38:10;;;;;;;4.85;2.85;;;;;;;20.81;41.64;102596.31;5038059;28;20774;-74
2022/11/26 04:40:36;;;;;;;5.15;2.75;;;;;;;20.80;41.89;102598.16;5037918;28;20041;-74
2022/11/26 04:43:02;;;;;;;4.00;2.33;;;;;;;20.86;41.79;102601.22;5041821;28;20061;-74
2022/11/26 04:45:27;;;;;;;5.82;2.72;;;;;;;20.77;41.77;102609.03;5041389;28;20048;-74
2022/11/26 04:47:53;;;;;;;5.53;2.90;;;;;;;20.76;41.96;102593.28;5038371;28;20744;-73
2022/11/26 04:50:19;;;;;;;3.58;2.20;;;;;;;20.79;41.93;102603.59;5041087;28;20044;-74
2022/11/26 04:52:47;;;;;;;5.38;2.63;;;;;;;20.82;41.61;102605.94;5041707;28;20048;-74
2022/11/26 04:55:14;;;;;;;4.68;2.60;;;;;;;20.74;42.02;102600.53;5037744;28;20038;-74
2022/11/26 04:57:39;;;;;;;7.15;2.60;;;;;;;20.78;42.00;102597.44;5041374;28;20044;-74
2022/11/26 05:00:06;;;;;;;5.35;3.00;;;;;;;20.77;41.91;102610.84;5037988;28;20052;-74
2022/11/26 05:02:32;;;;;;;4.80;2.80;;;;;;;20.78;41.73;102609.84;5033313;28;20029;-74
2022/11/26 05:04:57;;;;;;;4.85;2.90;;;;;;;20.72;41.96;102608.63;5034046;28;20601;-74
2022/11/26 05:07:23;;;;;;;5.35;2.60;;;;;;;20.76;41.76;102615.31;5032670;28;20045;-75
2022/11/26 05:09:48;;;;;;;5.45;2.80;;;;;;;20.80;41.80;102623.78;5032239;28;20029;-74
2022/11/26 05:12:14;;;;;;;6.28;2.60;;;;;;;20.70;41.97;102626.47;5031971;28;20049;-74
2022/11/26 05:14:39;;;;;;;5.03;2.70;;;;;;;20.77;41.68;102624.91;5030989;28;20053;-74
2022/11/26 05:17:05;;;;;;;3.60;2.55;;;;;;;20.78;41.85;102626.56;5036522;28;20409;-74
2022/11/26 05:19:30;;;;;;;4.70;2.45;;;;;;;20.64;41.90;102628.81;5035730;28;20029;-74
2022/11/26 05:21:56;;;;;;;4.85;2.65;;;;;;;20.68;41.95;102630.25;5031096;28;20033;-75
2022/11/26 05:24:21;;;;;;;3.85;2.50;;;;;;;20.68;42.03;102628.44;5036002;28;20045;-74
2022/11/26 05:26:47;;;;;;;4.30;2.60;;;;;;;20.65;41.86;102631.38;5039331;28;20107;-74
2022/11/26 05:29:12;;;;;;;6.88;2.75;;;;;;;20.61;41.94;102629.13;5032312;28;20044;-74
2022/11/26 05:31:38;;;;;;;4.95;3.22;;;;;;;20.71;41.83;102636.06;5033727;28;20060;-74
2022/11/26 05:34:03;;;;;;;7.05;3.00;;;;;;;20.61;42.08;102650.28;5034134;28;20394;-74
2022/11/26 05:36:29;;;;;;;4.80;2.40;;;;;;;20.71;41.87;102651.13;5034601;28;20044;-74
2022/11/26 05:38:54;;;;;;;4.93;3.10;;;;;;;20.65;42.02;102649.06;5036318;28;20403;-75
2022/11/26 05:41:20;;;;;;;5.40;2.22;;;;;;;20.75;41.70;102649.88;5036541;28;20052;-74
2022/11/26 05:43:45;;;;;;;5.13;2.63;;;;;;;20.68;41.70;102649.59;5032392;28;20162;-74
2022/11/26 05:46:15;;;;;;;6.00;2.50;;;;;;;20.62;41.85;102649.31;5037705;28;20047;-75
2022/11/26 05:48:40;;;;;;;5.85;2.88;;;;;;;20.73;41.71;102654.47;5034160;28;20068;-74
2022/11/26 05:51:06;;;;;;;6.25;3.17;;;;;;;20.60;41.95;102646.81;5037123;28;20040;-75
2022/11/26 05:53:31;;;;;;;5.40;2.50;;;;;;;20.64;41.40;102657.94;5035911;28;20045;-74
2022/11/26 05:55:57;;;;;;;5.10;2.75;;;;;;;20.62;41.93;102651.97;5031760;28;20036;-74
2022/11/26 05:58:22;;;;;;;5.80;2.80;;;;;;;20.62;41.81;102660.72;5040800;28;20037;-74
2022/11/26 06:00:48;;;;;;;3.47;2.47;;;;;;;20.65;41.81;102664.94;5032666;28;20135;-74
2022/11/26 06:03:13;;;;;;;4.72;2.70;;;;;;;20.64;41.82;102666.72;5032688;28;20025;-74
2022/11/26 06:05:38;;;;;;;5.80;2.80;;;;;;;20.68;41.87;102672.59;5044307;28;20041;-74
2022/11/26 06:08:04;;;;;;;4.43;2.67;;;;;;;20.53;41.74;102656.31;5039252;28;20057;-74
2022/11/26 06:10:30;;;;;;;3.90;2.40;;;;;;;20.65;41.74;102665.78;5039825;28;20079;-75
2022/11/26 06:12:55;;;;;;;6.53;2.95;;;;;;;20.58;41.82;102664.66;5031102;28;20033;-74
2022/11/26 06:15:21;;;;;;;6.75;3.13;;;;;;;20.60;41.75;102661.84;5031204;28;20033;-74
2022/11/26 06:17:46;;;;;;;5.50;2.70;;;;;;;20.60;41.88;102662.69;5034734;28;20048;-74
2022/11/26 06:20:12;;;;;;;6.95;2.67;;;;;;;20.63;42.00;102672.16;5041858;28;20029;-74
2022/11/26 06:22:39;;;;;;;6.32;2.80;;;;;;;20.66;41.77;102666.59;5044135;28;20128;-74
2022/11/26 06:25:07;;;;;;;6.47;2.90;;;;;;;20.56;41.98;102665.75;5043082;28;20152;-74
2022/11/26 06:27:33;;;;;;;4.85;2.50;;;;;;;20.65;41.74;102668.41;5035919;28;20049;-74
2022/11/26 06:29:59;;;;;;;5.22;2.88;;;;;;;20.58;41.99;102677.03;5032110;28;20039;-74
2022/11/26 06:32:24;;;;;;;4.28;2.72;;;;;;;20.66;41.83;102672.75;5033897;28;20043;-74
2022/11/26 06:34:50;;;;;;;7.25;2.88;;;;;;;20.64;41.79;102682.59;5033953;28;20090;-74
2022/11/26 06:37:15;;;;;;;4.47;2.75;;;;;;;20.58;41.98;102680.53;5035291;28;20040;-74
2022/11/26 06:39:41;;;;;;;4.75;3.38;;;;;;;20.60;42.07;102675.94;5038145;28;20045;-74
2022/11/26 06:42:07;;;;;;;6.50;2.50;;;;;;;20.62;41.89;102686.38;5032353;28;20050;-73
2022/11/26 06:44:36;;;;;;;4.70;2.90;;;;;;;20.45;42.07;102679.97;5033579;28;20098;-74
2022/11/26 06:47:01;;;;;;;2.97;2.45;;;;;;;20.60;42.12;102694.47;5033629;28;20036;-74
2022/11/26 06:49:27;;;;;;;5.00;2.65;;;;;;;20.60;42.20;102696.25;5033727;28;20052;-75
2022/11/26 06:51:53;;;;;;;4.63;2.80;;;;;;;20.63;41.79;102690.69;5028554;28;20049;-73
2022/11/26 06:54:19;;;;;;;4.30;2.35;;;;;;;20.67;41.81;102692.94;5029703;28;20045;-75
2022/11/26 06:56:44;;;;;;;5.13;2.70;;;;;;;20.64;42.06;102687.06;5030239;28;20063;-74
2022/11/26 06:59:10;;;;;;;3.80;2.38;;;;;;;20.61;42.17;102687.34;5038140;28;20043;-74
2022/11/26 07:01:36;;;;;;;4.60;2.50;;;;;;;20.61;42.19;102698.78;5033183;28;20518;-74
2022/11/26 07:04:01;;;;;;;4.88;2.53;;;;;;;20.68;42.06;102699.91;5033588;28;20051;-74
2022/11/26 07:06:29;;;;;;;4.05;2.55;;;;;;;20.66;42.06;102703.66;5034064;28;20052;-74
2022/11/26 07:08:57;;;;;;;4.60;2.53;;;;;;;20.66;41.93;102699.22;5038117;28;20111;-74
2022/11/26 07:11:24;;;;;;;7.25;2.50;;;;;;;20.62;41.93;102700.44;5036318;28;20021;-74
2022/11/26 07:13:49;;;;;;;5.53;2.65;;;;;;;20.61;42.23;102716.47;5034149;28;20235;-74
2022/11/26 07:16:15;;;;;;;3.63;2.30;;;;;;;20.68;41.75;102709.66;5032946;28;20919;-75
2022/11/26 07:18:41;;;;;;;3.70;2.38;;;;;;;20.61;42.01;102711.16;5027190;28;20068;-75
2022/11/26 07:21:11;;;;;;;4.80;2.42;;;;;;;20.71;41.80;102719.97;5037520;28;20383;-74
2022/11/26 07:23:38;;;;;;;4.07;2.50;;;;;;;20.65;41.99;102715.22;5034634;28;20093;-74
2022/11/26 07:26:05;;;;;;;4.75;2.50;;;;;;;20.65;41.88;102712.59;5034259;28;20488;-74
2022/11/26 07:28:32;;;;;;;5.80;2.67;;;;;;;20.61;42.09;102711.16;5030502;28;20542;-74
2022/11/26 07:31:09;;;;;;;4.60;2.67;;;;;;;20.62;42.00;102723.44;5037861;28;20044;-73
2022/11/26 07:33:35;;;;;;;4.13;2.38;;;;;;;20.61;42.16;102722.59;5033942;28;21240;-74
2022/11/26 07:36:06;;;;;;;3.40;2.30;;;;;;;20.63;42.04;102725.94;5030843;28;20052;-73
2022/11/26 07:38:31;;;;;;;4.43;2.47;;;;;;;20.65;41.97;102729.31;5029489;28;20049;-74
2022/11/26 07:41:06;;;;;;;4.65;2.78;;;;;;;20.65;42.12;102726.66;5030153;28;20041;-74
2022/11/26 07:43:36;;;;;;;3.30;2.33;;;;;;;20.65;41.96;102742.53;5031899;28;20099;-74
2022/11/26 07:46:02;;;;;;;;;;;;;;;20.60;42.11;102750.03;5032719;28;20029;-74
2022/11/26 07:48:31;;;;;;;7.07;2.60;;;;;;;20.63;42.00;102743.63;5032619;28;19921;-74
2022/11/26 07:50:58;;;;;;;3.30;2.53;;;;;;;20.68;42.12;102750.19;5031464;28;20044;-74
2022/11/26 07:53:26;;;;;;;4.05;2.65;;;;;;;20.59;42.11;102752.81;5027764;28;20547;-73
2022/11/26 07:55:52;;;;;;;4.45;2.67;;;;;;;20.61;42.15;102754.34;5028572;28;20028;-75
2022/11/26 07:58:18;;;;;;;3.38;2.38;;;;;;;20.63;42.02;102747.09;5027253;28;20660;-76
2022/11/26 08:00:43;;;;;;;4.15;2.42;;;;;;;20.67;42.21;102750.34;5032635;28;20036;-76
2022/11/26 08:03:09;;;;;;;3.28;2.30;;;;;;;20.60;42.16;102751.84;5031100;28;20116;-75
2022/11/26 08:05:34;;;;;;;3.17;2.40;;;;;;;20.65;42.12;102757.59;5029406;28;20044;-74
2022/11/26 08:08:00;;;;;;;4.80;2.90;;;;;;;20.65;42.24;102754.94;5030345;28;20060;-74
2022/11/26 08:10:25;;;;;;;4.72;2.42;;;;;;;20.63;41.99;102744.47;5036288;28;20434;-75
2022/11/26 08:12:51;;;;;;;4.45;2.55;;;;;;;20.59;42.44;102744.88;5033712;28;20041;-75
2022/11/26 08:15:16;;;;;;;3.75;2.47;;;;;;;20.59;42.24;102753.66;5034981;28;20178;-75
2022/11/26 08:17:42;;;;;;;4.90;2.63;;;;;;;20.62;42.15;102752.53;5027679;28;20986;-74
2022/11/26 08:20:08;;;;;;;4.57;2.53;;;;;;;20.61;42.08;102749.06;5034367;28;20040;-75
2022/11/26 08:22:33;;;;;;;4.75;2.35;;;;;;;20.60;42.32;102750.03;5031789;28;20501;-75
2022/11/26 08:24:59;;;;;;;5.20;2.67;;;;;;;20.59;42.12;102751.00;5034869;28;20040;-75
2022/11/26 08:27:24;;;;;;;3.97;2.47;;;;;;;20.67;41.92;102753.81;5030853;28;20764;-75
2022/11/26 08:29:50;;;;;;;4.85;2.40;;;;;;;20.55;41.85;102733.75;5033708;28;20040;-76
2022/11/26 08:32:15;;;;;;;4.75;2.60;;;;;;;20.64;42.14;102755.88;5033416;28;20502;-75
2022/11/26 08:34:41;;;;;;;3.92;2.60;;;;;;;20.58;41.98;102759.09;5033103;28;20120;-76
2022/11/26 08:37:06;;;;;;;4.00;2.75;;;;;;;20.64;42.08;102762.00;5031459;28;20086;-76
2022/11/26 08:39:32;;;;;;;5.03;2.92;;;;;;;20.64;41.32;102769.97;5030584;28;20029;-75
2022/11/26 08:41:57;;;;;;;5.18;2.83;;;;;;;20.57;41.91;102765.38;5030051;28;20764;-73
2022/11/26 08:44:23;;;;;;;6.43;3.10;;;;;;;20.54;41.69;102768.28;5029696;28;20772;-73
2022/11/26 08:46:49;;;;;;;4.75;3.30;;;;;;;20.56;41.60;102767.19;5030354;28;20044;-73
2022/11/26 08:49:15;;;;;;;4.40;2.60;;;;;;;20.51;41.69;102754.38;5032459;28;20086;-73
2022/11/26 08:51:42;;;;;;;6.10;2.80;;;;;;;20.63;41.51;102770.94;5028802;28;20104;-72
2022/11/26 08:54:08;;;;;;;5.88;2.95;;;;;;;20.58;41.74;102769.69;5033878;28;20041;-71
2022/11/26 08:56:34;;;;;;;7.53;3.03;;;;;;;20.56;41.78;102776.94;5033233;28;20060;-71
2022/11/26 08:59:00;;;;;;;3.67;3.20;;;;;;;20.53;41.39;102772.75;5027195;28;20037;-75
2022/11/26 09:01:28;;;;;;;7.25;2.85;;;;;;;20.59;41.59;102774.00;5031182;28;20064;-72
2022/11/26 09:03:56;;;;;;;7.38;3.20;;;;;;;20.55;41.81;102773.44;5032891;28;20041;-72
2022/11/26 09:06:24;;;;;;;6.25;3.20;;;;;;;20.51;41.70;102772.06;5027261;28;20137;-73
2022/11/26 09:11:37;;;;;;;5.30;2.90;;;;;;;20.51;41.40;102772.06;5034245;28;20041;-73
2022/11/26 09:14:04;;;;;;;5.82;3.00;;;;;;;20.49;41.53;102774.00;5039937;28;20041;-73
2022/11/26 09:16:30;;;;;;;5.40;3.30;;;;;;;20.55;41.23;102776.09;5027705;28;20049;-73
2022/11/26 09:18:59;;;;;;;5.35;2.95;;;;;;;20.50;41.26;102773.88;5040428;28;20532;-73
2022/11/26 09:21:25;;;;;;;5.28;2.97;;;;;;;20.50;41.22;102773.03;5030718;28;20040;-73
2022/11/26 09:23:50;;;;;;;5.57;3.28;;;;;;;20.52;41.42;102777.22;5037120;28;20381;-73
2022/11/26 09:26:19;;;;;;;4.78;3.10;;;;;;;20.46;41.26;102782.19;5034727;28;20052;-73
2022/11/26 09:28:46;;;;;;;6.38;2.92;;;;;;;20.45;41.22;102775.22;5028285;28;20044;-73
2022/11/26 09:31:12;;;;;;;6.18;2.97;;;;;;;20.51;41.32;102777.34;5032794;28;20037;-73
2022/11/26 09:33:37;;;;;;;5.20;3.13;;;;;;;20.50;41.13;102789.75;5037034;28;20033;-73
2022/11/26 09:36:08;;;;;;;5.85;2.63;;;;;;;20.55;40.92;102789.31;5035103;28;20507;-73
2022/11/26 09:38:34;;;;;;;8.80;3.35;;;;;;;20.50;41.22;102791.56;5037626;28;20041;-73
2022/11/26 09:41:09;;;;;;;4.38;3.05;;;;;;;20.45;41.15;102794.59;5037489;28;20660;-73
2022/11/26 09:43:52;;;;;;;4.03;2.67;;;;;;;20.49;41.10;102803.13;5038579;28;20065;-74
2022/11/26 09:46:27;;;;;;;6.05;3.00;;;;;;;20.43;41.20;102807.13;5037577;28;20044;-73
2022/11/26 09:48:56;;;;;;;5.13;3.00;;;;;;;20.46;40.88;102792.78;5033818;28;20026;-73
2022/11/26 09:51:21;;;;;;;7.65;3.22;;;;;;;20.49;40.94;102805.75;5036166;28;20033;-74
2022/11/26 09:53:50;;;;;;;9.20;3.38;;;;;;;20.42;40.99;102808.09;5030678;28;20613;-73
2022/11/26 09:56:23;;;;;;;6.88;3.47;;;;;;;20.39;41.17;102808.34;5035907;28;20170;-74
2022/11/26 09:58:58;;;;;;;5.18;2.90;;;;;;;20.39;40.98;102807.50;5034463;28;20466;-73
2022/11/26 10:01:24;;;;;;;8.38;3.33;;;;;;;20.40;40.83;102810.00;5026067;28;20041;-73
2022/11/26 10:03:51;;;;;;;5.90;3.08;;;;;;;20.40;40.87;102823.25;5029739;28;20053;-73
2022/11/26 10:06:35;;;;;;;7.07;3.28;;;;;;;20.37;40.90;102820.88;5034415;28;20056;-73
2022/11/26 10:09:25;;;;;;;6.47;2.90;;;;;;;20.41;40.84;102819.66;5033134;28;20040;-73
2022/11/26 10:12:09;;;;;;;8.00;3.60;;;;;;;20.45;40.85;102814.91;5038810;28;20487;-73
2022/11/26 10:14:43;;;;;;;6.10;3.45;;;;;;;20.40;40.92;102811.81;5031928;28;22003;-73
2022/11/26 10:17:18;;;;;;;6.57;3.17;;;;;;;20.41;40.88;102810.88;5032690;28;20469;-73
2022/11/26 10:19:58;;;;;;;6.65;3.42;;;;;;;20.42;40.81;102816.03;5039123;28;20430;-73
2022/11/26 10:23:04;;;;;;;6.93;3.30;;;;;;;20.35;40.88;102808.75;5032992;28;20052;-72
2022/11/26 10:25:37;;;;;;;7.60;3.50;;;;;;;20.38;40.90;102819.06;4988278;28;20052;-73
2022/11/26 10:28:18;;;;;;;6.88;3.40;;;;;;;20.47;40.74;102818.31;5032198;28;20057;-73
2022/11/26 10:30:44;;;;;;;6.43;3.65;;;;;;;20.37;40.79;102818.22;5037156;28;20036;-73
2022/11/26 10:33:14;;;;;;;6.88;3.83;;;;;;;20.33;41.00;102824.78;5037315;28;20091;-73
2022/11/26 10:35:43;;;;;;;7.40;3.42;;;;;;;20.36;40.71;102813.06;5032685;28;20121;-73
2022/11/26 10:38:09;;;;;;;6.25;3.13;;;;;;;20.35;40.79;102820.19;5032027;28;20040;-72
2022/11/26 10:40:35;;;;;;;7.03;3.17;;;;;;;20.38;40.81;102825.19;5038932;28;20048;-72
2022/11/26 10:43:08;;;;;;;9.10;3.55;;;;;;;20.39;40.69;102818.09;5033663;28;20049;-72
2022/11/26 10:45:46;;;;;;;9.15;3.53;;;;;;;20.37;40.81;102820.03;5028833;28;20063;-73
2022/11/26 10:48:33;;;;;;;5.97;3.35;;;;;;;20.35;40.97;102817.53;5037130;28;20499;-73
2022/11/26 10:51:11;;;;;;;7.45;3.25;;;;;;;20.33;40.98;102810.72;5031071;28;20136;-72
2022/11/26 10:53:57;;;;;;;7.00;3.15;;;;;;;20.29;41.07;102818.09;5038732;28;20041;-72
2022/11/26 10:56:34;;;;;;;8.70;3.53;;;;;;;20.37;40.79;102799.72;5040225;28;20044;-74
2022/11/26 10:59:04;;;;;;;4.68;2.83;;;;;;;20.31;40.83;102808.19;5033745;28;20046;-74
2022/11/26 11:01:35;;;;;;;;;;;;;;;20.39;40.86;102811.00;5035968;28;20039;-73
2022/11/26 11:04:03;;;;;;;7.72;3.70;;;;;;;20.33;40.75;102814.19;5034787;28;19928;-73
2022/11/26 11:06:40;;;;;;;7.00;4.07;;;;;;;20.32;40.89;102806.38;5040860;28;20033;-73
2022/11/26 11:09:26;;;;;;;8.60;3.70;;;;;;;20.27;40.93;102798.00;5033485;28;20029;-72
2022/11/26 11:12:16;;;;;;;10.52;4.03;;;;;;;20.37;40.81;102799.72;5030282;28;20060;-71
2022/11/26 11:14:44;;;;;;;6.72;3.88;;;;;;;20.27;41.09;102804.13;5037708;28;20090;-73
2022/11/26 11:17:18;;;;;;;7.07;3.40;;;;;;;20.23;41.12;102805.38;5035511;28;20443;-72
2022/11/26 11:19:44;;;;;;;7.35;3.60;;;;;;;20.28;41.02;102805.78;5038210;28;20123;-73
2022/11/26 11:22:20;;;;;;;8.18;3.83;;;;;;;20.27;41.09;102796.19;5034849;28;20162;-72
2022/11/26 11:24:46;;;;;;;7.28;3.42;;;;;;;20.24;41.26;102777.94;5032264;28;20055;-72
2022/11/26 11:27:26;;;;;;;6.63;3.42;;;;;;;20.32;41.10;102783.41;5039191;28;20033;-72
2022/11/26 11:29:52;;;;;;;6.93;3.75;;;;;;;20.19;41.26;102778.34;5028878;28;20044;-72
2022/11/26 11:32:38;;;;;;;7.70;3.67;;;;;;;20.27;41.11;102785.59;5039420;28;20033;-72
2022/11/26 11:35:19;;;;;;;8.43;4.15;;;;;;;20.26;41.07;102778.63;5034772;28;21013;-72
2022/11/26 11:37:55;;;;;;;6.70;3.45;;;;;;;20.29;41.11;102788.09;5036500;28;20049;-73